Time;durP1;ratioP1;P1;durP2;ratioP2;P2;SDS_P1;SDS_P2;PMS_P1;PMS_P2;Temp;Humidity;BMP_temperature;BMP_pressure;BME280_temperature;BME280_humidity;BME280_pressure;Samples;Min_cycle;Max_cycle;Signal;HPM_P1;HPM_P2
2023/09/05 00:01:51;;;;;;;797.77;219.60;;;14.20;99.90;;;;;;5077563;28;20416;-83
2023/09/05 00:04:17;;;;;;;819.63;225.60;;;14.20;99.90;;;;;;5095825;28;20289;-82
2023/09/05 00:06:43;;;;;;;805.83;221.67;;;14.20;99.90;;;;;;5095860;28;20275;-83
2023/09/05 00:09:09;;;;;;;792.00;214.70;;;14.20;99.90;;;;;;5095362;28;20040;-83
2023/09/05 00:11:34;;;;;;;803.53;223.90;;;14.20;99.90;;;;;;5095690;28;20401;-83
2023/09/05 00:14:01;;;;;;;807.50;220.60;;;14.20;99.90;;;;;;5077609;28;20036;-83
2023/09/05 00:16:27;;;;;;;793.73;220.03;;;14.20;99.90;;;;;;5060773;28;20531;-83
2023/09/05 00:18:54;;;;;;;798.50;216.13;;;14.20;99.90;;;;;;5095801;28;20182;-83
2023/09/05 00:21:19;;;;;;;795.77;216.27;;;14.30;99.90;;;;;;5077137;28;20048;-82
2023/09/05 00:23:45;;;;;;;804.87;219.60;;;14.20;99.90;;;;;;5076788;28;20700;-83
2023/09/05 00:26:11;;;;;;;802.03;217.70;;;14.10;99.90;;;;;;5095254;28;20047;-83
2023/09/05 00:28:36;;;;;;;791.67;218.37;;;14.10;99.90;;;;;;5095044;28;20114;-84
2023/09/05 00:31:02;;;;;;;801.03;217.63;;;14.10;99.90;;;;;;5094811;28;20485;-83
2023/09/05 00:33:31;;;;;;;802.27;219.23;;;14.10;99.90;;;;;;5077026;28;20143;-82
2023/09/05 00:35:57;;;;;;;800.70;214.90;;;14.10;99.90;;;;;;5095140;28;20051;-83
2023/09/05 00:38:23;;;;;;;795.57;217.77;;;14.10;99.90;;;;;;5095203;28;20282;-83
2023/09/05 00:40:49;;;;;;;792.90;218.60;;;14.10;99.90;;;;;;5094829;28;20359;-84
2023/09/05 00:43:20;;;;;;;814.13;224.03;;;14.00;99.90;;;;;;5094583;28;20032;-83
2023/09/05 00:45:49;;;;;;;815.80;221.63;;;13.90;99.90;;;;;;5077077;28;20348;-84
2023/09/05 00:48:16;;;;;;;779.63;213.43;;;13.90;99.90;;;;;;5076645;28;20327;-83
2023/09/05 00:50:42;;;;;;;781.60;214.97;;;13.90;99.90;;;;;;5094852;28;20637;-82
2023/09/05 00:53:08;;;;;;;755.63;210.37;;;13.80;99.90;;;;;;5095103;28;20347;-83
2023/09/05 00:55:34;;;;;;;758.17;210.83;;;13.80;99.90;;;;;;5076535;28;20051;-82
2023/09/05 00:58:00;;;;;;;783.67;216.80;;;13.80;99.90;;;;;;5094304;28;20040;-82
2023/09/05 01:00:27;;;;;;;795.60;218.10;;;13.80;99.90;;;;;;5094180;28;20036;-83
2023/09/05 01:02:55;;;;;;;787.97;214.67;;;13.90;99.90;;;;;;5076494;28;20289;-83
2023/09/05 01:05:27;;;;;;;787.27;216.60;;;13.70;99.90;;;;;;5094468;28;20290;-82
2023/09/05 01:08:14;;;;;;;765.37;212.90;;;13.60;99.90;;;;;;5094797;28;20267;-84
2023/09/05 01:10:55;;;;;;;773.33;214.20;;;13.70;99.90;;;;;;5093893;28;20059;-82
2023/09/05 01:13:26;;;;;;;777.77;212.77;;;13.70;99.90;;;;;;5056457;28;20301;-83
2023/09/05 01:15:52;;;;;;;767.47;213.73;;;13.80;99.90;;;;;;5056454;28;20303;-82
2023/09/05 01:18:18;;;;;;;730.70;210.43;;;13.60;99.90;;;;;;5074087;28;20283;-82
2023/09/05 01:21:03;;;;;;;735.63;209.77;;;13.60;99.90;;;;;;5056071;28;20267;-82
2023/09/05 01:23:37;;;;;;;758.57;214.00;;;13.90;99.90;;;;;;5055961;28;20048;-83
2023/09/05 01:26:04;;;;;;;734.53;208.37;;;13.50;99.90;;;;;;5088720;28;20490;-83
2023/09/05 01:28:35;;;;;;;742.57;208.83;;;13.40;99.90;;;;;;5094262;28;20375;-83
2023/09/05 01:31:01;;;;;;;764.13;214.80;;;13.50;99.90;;;;;;5093833;28;20310;-82
2023/09/05 01:33:26;;;;;;;763.40;213.43;;;13.50;99.90;;;;;;5076051;28;20300;-83
2023/09/05 01:35:52;;;;;;;757.13;212.93;;;13.40;99.90;;;;;;5093660;28;20290;-82
2023/09/05 01:38:18;;;;;;;749.80;210.97;;;13.40;99.90;;;;;;5093733;28;20067;-84
2023/09/05 01:40:44;;;;;;;738.80;210.33;;;13.40;99.90;;;;;;5093391;28;20048;-83
2023/09/05 01:43:09;;;;;;;737.63;210.53;;;13.40;99.90;;;;;;5075930;28;20047;-82
2023/09/05 01:45:35;;;;;;;716.77;209.47;;;13.30;99.90;;;;;;5093974;28;20440;-83
2023/09/05 01:48:01;;;;;;;724.20;209.23;;;13.30;99.90;;;;;;5075411;28;20551;-82
2023/09/05 01:50:32;;;;;;;718.30;209.93;;;13.30;99.90;;;;;;5093628;28;20043;-83
2023/09/05 01:52:58;;;;;;;720.83;209.23;;;13.30;99.90;;;;;;5093279;28;20044;-82
2023/09/05 01:55:24;;;;;;;719.90;208.60;;;13.30;99.90;;;;;;5093393;28;20388;-82
2023/09/05 01:57:49;;;;;;;711.40;206.90;;;13.20;99.90;;;;;;5075300;28;20097;-82
2023/09/05 02:00:17;;;;;;;719.17;206.33;;;13.30;99.90;;;;;;5092939;28;20024;-83
2023/09/05 02:02:43;;;;;;;718.23;208.80;;;13.30;99.90;;;;;;5093218;28;20051;-82
2023/09/05 02:05:10;;;;;;;705.53;206.90;;;13.30;99.90;;;;;;5058844;28;20290;-83
2023/09/05 02:07:36;;;;;;;703.90;206.97;;;13.30;99.90;;;;;;5093032;28;20193;-83
2023/09/05 02:10:01;;;;;;;699.60;208.07;;;13.30;99.90;;;;;;5092958;28;20731;-82
2023/09/05 02:12:30;;;;;;;685.23;204.10;;;13.30;99.90;;;;;;5093471;28;20032;-82
2023/09/05 02:14:55;;;;;;;680.87;205.00;;;13.30;99.90;;;;;;5074789;28;20537;-82
2023/09/05 02:17:21;;;;;;;675.23;204.53;;;13.30;99.90;;;;;;5092890;28;20409;-82
2023/09/05 02:19:47;;;;;;;673.97;207.07;;;13.30;99.90;;;;;;5092454;28;20119;-82
2023/09/05 02:22:12;;;;;;;682.93;204.27;;;13.30;99.90;;;;;;5093419;28;20509;-82
2023/09/05 02:24:38;;;;;;;698.97;207.37;;;13.30;99.90;;;;;;5093015;28;20046;-82
2023/09/05 02:27:04;;;;;;;691.93;204.90;;;13.30;99.90;;;;;;5075443;28;20046;-82
2023/09/05 02:29:32;;;;;;;688.67;206.03;;;13.30;99.90;;;;;;5093222;28;20028;-83
2023/09/05 02:31:57;;;;;;;681.63;205.57;;;13.30;99.90;;;;;;5092664;28;20044;-82
2023/09/05 02:34:23;;;;;;;682.37;203.23;;;13.20;99.90;;;;;;5092371;28;20124;-83
2023/09/05 02:36:49;;;;;;;681.30;201.03;;;13.20;99.90;;;;;;5091925;28;20416;-82
2023/09/05 02:39:14;;;;;;;680.20;203.73;;;13.20;99.90;;;;;;5092827;28;20105;-82
2023/09/05 02:41:40;;;;;;;684.23;203.67;;;13.20;99.90;;;;;;5092865;28;20044;-82
2023/09/05 02:44:06;;;;;;;675.73;205.30;;;13.10;99.90;;;;;;5092669;28;20032;-82
2023/09/05 02:46:31;;;;;;;688.00;205.07;;;13.10;99.90;;;;;;5092370;28;20455;-82
2023/09/05 02:48:57;;;;;;;689.23;204.47;;;13.10;99.90;;;;;;5092288;28;20377;-81
2023/09/05 02:51:23;;;;;;;685.83;204.93;;;13.10;99.90;;;;;;5058109;28;20040;-82
2023/09/05 02:53:49;;;;;;;678.50;202.77;;;13.10;99.90;;;;;;5092827;28;20040;-82
2023/09/05 02:56:16;;;;;;;683.87;203.20;;;13.00;99.90;;;;;;5092801;28;20131;-82
2023/09/05 02:58:42;;;;;;;685.67;204.87;;;13.10;99.90;;;;;;5093004;28;20047;-82
2023/09/05 03:01:11;;;;;;;690.20;202.23;;;13.10;99.90;;;;;;5092713;28;20401;-82
2023/09/05 03:03:38;;;;;;;683.67;205.13;;;13.10;99.90;;;;;;5092541;28;20089;-82
2023/09/05 03:06:11;;;;;;;686.10;205.33;;;13.10;99.90;;;;;;5092669;28;20286;-82
2023/09/05 03:08:37;;;;;;;675.87;202.60;;;13.10;99.90;;;;;;5092633;28;20052;-82
2023/09/05 03:11:02;;;;;;;678.63;203.47;;;13.00;99.90;;;;;;5092717;28;20305;-82
2023/09/05 03:13:28;;;;;;;668.03;202.50;;;13.00;99.90;;;;;;5095601;28;20286;-82
2023/09/05 03:15:54;;;;;;;682.13;204.23;;;13.00;99.90;;;;;;5096843;28;20046;-83
2023/09/05 03:18:20;;;;;;;670.70;203.53;;;12.90;99.90;;;;;;5078307;28;20043;-83
2023/09/05 03:20:46;;;;;;;663.63;203.03;;;12.70;99.90;;;;;;5096493;28;20127;-83
2023/09/05 03:23:15;;;;;;;659.17;202.60;;;12.90;99.90;;;;;;5096842;28;20119;-83
2023/09/05 03:25:41;;;;;;;658.60;201.57;;;12.90;99.90;;;;;;5078613;28;20874;-82
2023/09/05 03:28:09;;;;;;;657.83;203.13;;;12.90;99.90;;;;;;5061706;28;20294;-82
2023/09/05 03:30:35;;;;;;;663.80;203.23;;;12.90;99.90;;;;;;5078152;28;20036;-82
2023/09/05 03:33:01;;;;;;;659.03;201.67;;;12.90;99.90;;;;;;5095826;28;20298;-82
2023/09/05 03:35:27;;;;;;;661.63;201.90;;;12.90;99.90;;;;;;5096325;28;20055;-82
2023/09/05 03:37:53;;;;;;;664.67;201.50;;;12.90;99.90;;;;;;5078305;28;20052;-83
2023/09/05 03:40:18;;;;;;;661.93;202.97;;;12.90;99.90;;;;;;5078123;28;20122;-82
2023/09/05 03:42:44;;;;;;;656.63;199.37;;;12.90;99.90;;;;;;5078014;28;20110;-83
2023/09/05 03:45:10;;;;;;;652.23;199.27;;;12.60;99.90;;;;;;5095911;28;20058;-82
2023/09/05 03:47:36;;;;;;;654.13;200.47;;;12.90;99.90;;;;;;5078153;28;20089;-82
2023/09/05 03:50:02;;;;;;;652.90;201.53;;;12.90;99.90;;;;;;5096015;28;20036;-82
2023/09/05 03:52:28;;;;;;;657.53;201.97;;;12.90;99.90;;;;;;5095856;28;20056;-82
2023/09/05 03:54:54;;;;;;;660.03;200.90;;;12.90;99.90;;;;;;5096338;28;20040;-82
2023/09/05 03:57:19;;;;;;;673.37;203.30;;;12.90;99.90;;;;;;5096389;28;20119;-82
2023/09/05 03:59:45;;;;;;;680.57;203.30;;;12.90;99.90;;;;;;5095386;28;20563;-83
2023/09/05 04:02:11;;;;;;;666.60;200.90;;;12.80;99.90;;;;;;5077672;28;20048;-82
2023/09/05 04:04:37;;;;;;;666.53;203.03;;;12.90;99.90;;;;;;5095360;28;20581;-82
2023/09/05 04:07:02;;;;;;;676.20;203.47;;;12.90;99.90;;;;;;5095117;28;20036;-83
2023/09/05 04:09:28;;;;;;;665.83;203.13;;;12.90;99.90;;;;;;5061031;28;20044;-82
2023/09/05 04:11:54;;;;;;;666.20;201.17;;;13.30;99.90;;;;;;5095587;28;20048;-83
2023/09/05 04:14:19;;;;;;;663.33;199.93;;;12.90;99.90;;;;;;5095045;28;20044;-82
2023/09/05 04:16:45;;;;;;;666.17;202.03;;;12.90;99.90;;;;;;5095385;28;20389;-82
2023/09/05 04:19:11;;;;;;;666.87;200.43;;;12.90;99.90;;;;;;5095351;28;20044;-82
2023/09/05 04:21:39;;;;;;;657.87;202.60;;;13.30;99.90;;;;;;5077191;28;20051;-83
2023/09/05 04:24:06;;;;;;;651.90;202.20;;;12.90;99.90;;;;;;5094709;28;20486;-82
2023/09/05 04:26:33;;;;;;;656.87;200.17;;;12.80;99.90;;;;;;5095282;28;20352;-82
2023/09/05 04:29:01;;;;;;;664.37;203.30;;;12.80;99.90;;;;;;5076922;28;20356;-82
2023/09/05 04:31:27;;;;;;;657.67;202.53;;;12.80;99.90;;;;;;5095038;28;20799;-82
2023/09/05 04:33:54;;;;;;;656.20;200.83;;;12.80;99.90;;;;;;5095154;28;20327;-82
2023/09/05 04:36:20;;;;;;;652.17;201.70;;;12.70;99.90;;;;;;5095048;28;20122;-82
2023/09/05 04:38:48;;;;;;;649.73;199.20;;;12.80;99.90;;;;;;5095071;28;20564;-81
2023/09/05 04:41:14;;;;;;;647.80;200.73;;;12.80;99.90;;;;;;5094745;28;20567;-82
2023/09/05 04:43:40;;;;;;;660.33;200.87;;;12.80;99.90;;;;;;5094729;28;20286;-82
2023/09/05 04:46:09;;;;;;;650.40;202.43;;;12.70;99.90;;;;;;5094829;28;20044;-83
2023/09/05 04:48:35;;;;;;;651.33;201.33;;;12.70;99.90;;;;;;5094633;28;20044;-83
2023/09/05 04:51:04;;;;;;;650.80;199.57;;;12.70;99.90;;;;;;5059817;28;20317;-83
2023/09/05 04:53:31;;;;;;;658.40;201.63;;;12.70;99.90;;;;;;5076555;28;20396;-82
2023/09/05 04:55:59;;;;;;;648.67;200.30;;;12.70;99.90;;;;;;5094799;28;20787;-82
2023/09/05 04:58:27;;;;;;;653.73;202.40;;;12.70;99.90;;;;;;5094781;28;20357;-82
2023/09/05 05:00:56;;;;;;;649.67;199.97;;;12.70;99.90;;;;;;5076416;28;20298;-82
2023/09/05 05:03:24;;;;;;;652.40;200.43;;;12.70;99.90;;;;;;5076524;28;20040;-83
2023/09/05 05:05:50;;;;;;;644.90;199.80;;;12.70;99.90;;;;;;5094362;28;20299;-83
2023/09/05 05:08:16;;;;;;;649.67;200.63;;;12.70;99.90;;;;;;5076426;28;20675;-83
2023/09/05 05:10:41;;;;;;;639.67;201.10;;;12.70;99.90;;;;;;5076423;28;20478;-84
2023/09/05 05:13:07;;;;;;;634.90;196.90;;;12.70;99.90;;;;;;5094419;28;20036;-83
2023/09/05 05:15:33;;;;;;;630.07;197.87;;;12.70;99.90;;;;;;5094098;28;20596;-82
2023/09/05 05:17:59;;;;;;;628.10;199.70;;;12.70;99.90;;;;;;5076423;28;20040;-83
2023/09/05 05:20:24;;;;;;;619.80;197.50;;;12.70;99.90;;;;;;5094156;28;20402;-82
2023/09/05 05:22:50;;;;;;;622.67;198.47;;;13.00;99.90;;;;;;5094346;28;20051;-83
2023/09/05 05:25:16;;;;;;;623.27;196.53;;;12.80;99.90;;;;;;5093990;28;20439;-82
2023/09/05 05:27:42;;;;;;;630.17;196.17;;;12.80;99.90;;;;;;5093921;28;20048;-83
2023/09/05 05:30:08;;;;;;;632.43;199.60;;;12.80;99.90;;;;;;5075172;28;20047;-83
2023/09/05 05:32:34;;;;;;;621.13;197.93;;;12.80;99.90;;;;;;5059108;28;20144;-82
2023/09/05 05:35:00;;;;;;;620.13;197.97;;;12.80;99.90;;;;;;5093049;28;20318;-83
2023/09/05 05:37:26;;;;;;;617.27;195.43;;;12.80;99.90;;;;;;5093679;28;20036;-83
2023/09/05 05:39:51;;;;;;;623.13;197.50;;;12.80;99.90;;;;;;5076570;28;20044;-86
2023/09/05 05:42:18;;;;;;;621.53;197.33;;;12.90;99.90;;;;;;5094212;28;20044;-83
2023/09/05 05:44:44;;;;;;;611.90;198.03;;;12.90;99.90;;;;;;5094016;28;20040;-83
2023/09/05 05:47:10;;;;;;;626.10;197.50;;;12.90;99.90;;;;;;5093779;28;20651;-84
2023/09/05 05:49:35;;;;;;;622.70;197.67;;;13.00;99.90;;;;;;5089257;28;20036;-84
2023/09/05 05:52:04;;;;;;;616.40;197.07;;;13.20;99.90;;;;;;5069625;28;20032;-83
2023/09/05 05:54:30;;;;;;;611.87;198.63;;;13.10;99.90;;;;;;5072225;28;20382;-86
2023/09/05 05:56:56;;;;;;;615.43;198.20;;;13.10;99.90;;;;;;5058513;28;20044;-82
2023/09/05 05:59:24;;;;;;;613.17;200.10;;;13.20;99.90;;;;;;5093965;28;20061;-86
2023/09/05 06:01:52;;;;;;;605.33;197.23;;;13.30;99.90;;;;;;5093751;28;20059;-86
2023/09/05 06:04:21;;;;;;;598.77;197.23;;;13.30;99.90;;;;;;5093495;28;20346;-86
2023/09/05 06:06:50;;;;;;;591.73;197.83;;;13.50;99.90;;;;;;5075471;28;20325;-85
2023/09/05 06:09:19;;;;;;;591.67;198.80;;;13.50;99.90;;;;;;5075704;28;20372;-83
2023/09/05 06:11:47;;;;;;;582.40;197.90;;;13.60;99.90;;;;;;5058042;28;20044;-87
2023/09/05 06:14:16;;;;;;;589.33;199.07;;;13.60;99.90;;;;;;5058737;28;20286;-87
2023/09/05 06:16:47;;;;;;;583.67;197.97;;;13.80;99.90;;;;;;5075019;28;20051;-86
2023/09/05 06:19:13;;;;;;;578.37;199.40;;;13.90;99.90;;;;;;5093366;28;20090;-86
2023/09/05 06:21:40;;;;;;;571.60;199.23;;;14.00;99.90;;;;;;5074560;28;20289;-86
2023/09/05 06:24:06;;;;;;;567.03;197.10;;;14.20;99.90;;;;;;5074950;28;20282;-85
2023/09/05 06:26:32;;;;;;;582.10;198.03;;;14.30;99.90;;;;;;5092221;28;20300;-87
2023/09/05 06:28:58;;;;;;;579.30;198.03;;;14.40;99.90;;;;;;5073924;28;20440;-89
2023/09/05 06:31:26;;;;;;;590.93;198.70;;;14.50;99.90;;;;;;5074286;28;20557;-87
2023/09/05 06:34:03;;;;;;;577.57;198.70;;;14.60;99.90;;;;;;5075018;28;20325;-86
2023/09/05 06:36:29;;;;;;;553.67;197.27;;;14.80;99.90;;;;;;5058638;28;20145;-87
2023/09/05 06:38:54;;;;;;;542.83;198.10;;;14.90;99.90;;;;;;5075229;28;20827;-86
2023/09/05 06:41:20;;;;;;;551.53;197.23;;;15.00;99.90;;;;;;5074785;28;20044;-86
2023/09/05 06:43:46;;;;;;;559.87;198.10;;;15.20;99.90;;;;;;5092956;28;20036;-86
2023/09/05 06:46:11;;;;;;;551.77;200.00;;;15.30;99.90;;;;;;5057742;28;20545;-86
2023/09/05 06:48:39;;;;;;;604.93;204.23;;;15.50;99.90;;;;;;5073982;28;20497;-87
2023/09/05 06:51:05;;;;;;;764.47;221.87;;;15.60;99.90;;;;;;5075020;28;20072;-83
2023/09/05 06:53:32;;;;;;;797.40;220.80;;;15.70;99.90;;;;;;5058206;28;20800;-86
2023/09/05 06:55:58;;;;;;;781.83;219.57;;;15.80;99.90;;;;;;5058275;28;20452;-88
2023/09/05 06:58:25;;;;;;;771.87;218.43;;;15.90;99.90;;;;;;5057942;28;20274;-84
2023/09/05 07:00:55;;;;;;;767.67;215.57;;;16.10;99.90;;;;;;5071049;28;20048;-87
2023/09/05 07:03:25;;;;;;;761.63;221.93;;;16.20;99.90;;;;;;5070825;28;20302;-88
2023/09/05 07:05:52;;;;;;;748.63;216.67;;;16.40;99.90;;;;;;5054205;28;20290;-87
2023/09/05 07:08:18;;;;;;;751.90;214.90;;;16.50;99.90;;;;;;5071646;28;20283;-82
2023/09/05 07:10:44;;;;;;;745.07;215.73;;;16.70;99.90;;;;;;5071311;28;20478;-86
2023/09/05 07:13:10;;;;;;;774.97;219.03;;;16.80;99.90;;;;;;5072303;28;20119;-85
2023/09/05 07:15:36;;;;;;;766.40;215.57;;;17.00;99.90;;;;;;5053642;28;20432;-86
2023/09/05 07:18:02;;;;;;;783.43;218.50;;;17.10;99.90;;;;;;5053862;28;20174;-86
2023/09/05 07:20:28;;;;;;;769.37;219.63;;;17.30;99.90;;;;;;5071139;28;20048;-88
2023/09/05 07:22:54;;;;;;;790.93;219.10;;;17.40;99.90;;;;;;5054783;28;20041;-86
2023/09/05 07:25:20;;;;;;;765.70;217.77;;;17.50;99.90;;;;;;5070718;28;20044;-84
2023/09/05 07:27:45;;;;;;;733.33;216.20;;;17.70;99.90;;;;;;5053453;28;20028;-81
2023/09/05 07:30:16;;;;;;;696.60;214.03;;;17.80;99.90;;;;;;5071213;28;20068;-85
2023/09/05 07:32:42;;;;;;;712.40;217.13;;;17.90;99.90;;;;;;5071690;28;20080;-82
2023/09/05 07:35:08;;;;;;;626.90;211.93;;;18.10;99.90;;;;;;5072048;28;20478;-83
2023/09/05 07:37:34;;;;;;;625.97;209.43;;;18.30;99.90;;;;;;5070903;28;20047;-84
2023/09/05 07:40:00;;;;;;;653.30;211.70;;;18.40;99.90;;;;;;5070928;28;20052;-83
2023/09/05 07:42:27;;;;;;;658.37;210.13;;;18.50;99.90;;;;;;5072032;28;20049;-83
2023/09/05 07:44:53;;;;;;;659.37;210.80;;;18.70;99.90;;;;;;5071647;28;20394;-85
2023/09/05 07:47:21;;;;;;;603.07;207.87;;;18.80;99.90;;;;;;5070533;28;20044;-83
2023/09/05 07:49:47;;;;;;;582.20;206.53;;;19.10;99.90;;;;;;5054373;28;20101;-82
2023/09/05 07:52:16;;;;;;;559.60;204.00;;;19.20;99.90;;;;;;5071805;28;20044;-83
2023/09/05 07:54:42;;;;;;;539.50;205.10;;;19.30;99.90;;;;;;5070706;28;20055;-83
2023/09/05 07:57:07;;;;;;;533.23;205.90;;;19.50;99.90;;;;;;5071793;28;20037;-84
2023/09/05 07:59:33;;;;;;;502.10;206.23;;;19.60;99.90;;;;;;5074578;28;20083;-83
2023/09/05 08:02:00;;;;;;;446.27;201.00;;;19.80;99.90;;;;;;5088594;28;20048;-83
2023/09/05 08:04:26;;;;;;;439.53;199.40;;;20.00;99.90;;;;;;5077675;28;20044;-83
2023/09/05 08:06:52;;;;;;;394.73;188.20;;;20.20;99.90;;;;;;5077733;28;20042;-83
2023/09/05 08:09:17;;;;;;;414.43;193.50;;;20.30;99.90;;;;;;5077731;28;20048;-84
2023/09/05 08:11:46;;;;;;;399.37;192.73;;;20.50;99.90;;;;;;5095481;28;20036;-83
2023/09/05 08:14:12;;;;;;;356.63;186.00;;;20.60;99.90;;;;;;5095681;28;20478;-83
2023/09/05 08:16:38;;;;;;;318.63;178.67;;;20.80;99.90;;;;;;5095494;28;20040;-83
2023/09/05 08:19:04;;;;;;;307.37;175.37;;;20.90;99.90;;;;;;5095063;28;20047;-82
2023/09/05 08:21:30;;;;;;;324.67;178.33;;;21.00;99.90;;;;;;5095676;28;20081;-83
2023/09/05 08:23:55;;;;;;;307.83;173.40;;;21.20;99.90;;;;;;5077583;28;20086;-84
2023/09/05 08:26:21;;;;;;;332.50;180.33;;;21.30;99.90;;;;;;5095723;28;20063;-83
2023/09/05 08:28:47;;;;;;;351.27;181.37;;;21.50;99.90;;;;;;5095461;28;20040;-85
2023/09/05 08:31:16;;;;;;;375.00;183.47;;;21.60;99.90;;;;;;5095313;28;20413;-83
2023/09/05 08:33:42;;;;;;;363.47;182.97;;;21.80;99.90;;;;;;5095008;28;20036;-83
2023/09/05 08:36:09;;;;;;;372.60;184.87;;;21.90;99.90;;;;;;5077135;28;20059;-84
2023/09/05 08:38:37;;;;;;;373.73;186.70;;;22.10;99.90;;;;;;5077569;28;20083;-84
2023/09/05 08:41:06;;;;;;;382.67;186.80;;;22.20;99.90;;;;;;5095119;28;20393;-83
2023/09/05 08:43:34;;;;;;;385.97;189.60;;;22.40;99.90;;;;;;5077264;28;20040;-84
2023/09/05 08:46:03;;;;;;;383.47;190.57;;;22.50;99.90;;;;;;5076559;28;20126;-83
2023/09/05 08:48:32;;;;;;;415.97;194.83;;;22.60;99.90;;;;;;5094895;28;20379;-83
2023/09/05 08:51:04;;;;;;;420.97;192.33;;;22.70;99.90;;;;;;5076776;28;20058;-83
2023/09/05 08:53:34;;;;;;;428.10;196.27;;;22.80;99.90;;;;;;5095072;28;20158;-83
2023/09/05 08:56:00;;;;;;;448.77;199.17;;;22.90;99.90;;;;;;5094487;28;20089;-84
2023/09/05 08:58:27;;;;;;;428.97;196.67;;;23.00;99.90;;;;;;5094789;28;20428;-83
2023/09/05 09:00:53;;;;;;;432.43;197.00;;;23.10;99.90;;;;;;5076322;28;20056;-84
2023/09/05 09:03:19;;;;;;;426.80;198.57;;;23.30;99.90;;;;;;5094851;28;20043;-84
2023/09/05 09:05:49;;;;;;;435.97;199.67;;;23.40;99.90;;;;;;5059467;28;20056;-83
2023/09/05 09:08:19;;;;;;;424.40;197.30;;;23.60;99.90;;;;;;5076500;28;20427;-84
2023/09/05 09:11:07;;;;;;;415.03;196.33;;;23.70;99.90;;;;;;5094517;28;20358;-84
2023/09/05 09:13:33;;;;;;;403.87;194.00;;;23.90;99.90;;;;;;5076181;28;20127;-84
2023/09/05 09:16:00;;;;;;;403.77;195.10;;;24.10;99.90;;;;;;5076106;28;20072;-85
2023/09/05 09:18:26;;;;;;;414.90;195.93;;;24.20;99.90;;;;;;5066664;28;20075;-84
2023/09/05 09:20:55;;;;;;;430.77;199.77;;;24.40;99.90;;;;;;5076642;28;20044;-85
2023/09/05 09:23:25;;;;;;;425.47;199.27;;;24.50;99.90;;;;;;5076119;28;20108;-84
2023/09/05 09:25:51;;;;;;;405.50;196.67;;;24.60;99.90;;;;;;5076286;28;20055;-84
2023/09/05 09:28:34;;;;;;;408.63;197.60;;;24.70;99.90;;;;;;5059094;28;20044;-86
2023/09/05 09:31:11;;;;;;;420.60;200.20;;;24.80;99.90;;;;;;5074757;28;20131;-86
2023/09/05 09:33:39;;;;;;;420.83;199.77;;;24.90;99.90;;;;;;5094010;28;20064;-86
2023/09/05 09:36:10;;;;;;;401.23;197.93;;;25.00;99.90;;;;;;5076373;28;20487;-87
2023/09/05 09:38:39;;;;;;;414.50;200.37;;;25.10;99.90;;;;;;5093550;28;20055;-86
2023/09/05 09:41:06;;;;;;;412.10;199.73;;;25.20;99.90;;;;;;5093862;28;20489;-85
2023/09/05 09:43:36;;;;;;;404.50;198.33;;;25.30;99.90;;;;;;5075461;28;20056;-85
2023/09/05 09:46:05;;;;;;;363.33;189.43;;;25.40;99.90;;;;;;5075649;28;20122;-85
2023/09/05 09:48:35;;;;;;;363.67;188.53;;;25.40;99.90;;;;;;5058588;28;20048;-85
2023/09/05 09:51:05;;;;;;;361.13;188.57;;;25.50;99.90;;;;;;5093521;28;20055;-86
2023/09/05 09:53:38;;;;;;;356.03;190.63;;;25.60;99.90;;;;;;5076010;28;20040;-88
2023/09/05 09:56:11;;;;;;;366.07;192.30;;;25.70;99.90;;;;;;5058455;28;20135;-85
2023/09/05 09:58:44;;;;;;;395.97;195.17;;;25.80;99.90;;;;;;5075555;28;20067;-86
2023/09/05 10:01:11;;;;;;;407.57;196.57;;;26.00;99.90;;;;;;5049989;28;20060;-87
2023/09/05 10:03:44;;;;;;;404.90;196.27;;;26.00;99.90;;;;;;5075606;28;20063;-87
2023/09/05 10:06:10;;;;;;;403.37;194.80;;;26.10;99.90;;;;;;5075745;28;20078;-85
2023/09/05 10:08:42;;;;;;;394.10;193.07;;;26.20;99.90;;;;;;5058459;28;20274;-90
2023/09/05 10:11:12;;;;;;;374.13;190.33;;;26.30;99.90;;;;;;5178202;23;20053;-86
2023/09/05 10:13:40;;;;;;;360.30;189.97;;;26.50;99.90;;;;;;5012944;28;20049;-86
2023/09/05 10:16:08;;;;;;;362.80;191.63;;;26.70;99.90;;;;;;4995784;28;20108;-86
2023/09/05 10:18:38;;;;;;;382.97;191.13;;;26.70;99.90;;;;;;5012716;28;20043;-86
2023/09/05 10:21:04;;;;;;;343.57;189.47;;;26.90;99.90;;;;;;5011421;28;20096;-85
2023/09/05 10:23:33;;;;;;;361.50;191.50;;;26.90;99.90;;;;;;5013437;28;20476;-87
2023/09/05 10:26:03;;;;;;;353.87;189.43;;;27.10;99.90;;;;;;4996058;28;20124;-86
2023/09/05 10:28:34;;;;;;;360.43;188.20;;;27.10;99.90;;;;;;5012047;28;20049;-88
2023/09/05 10:31:06;;;;;;;368.00;191.53;;;27.20;99.90;;;;;;4995719;28;20202;-88
2023/09/05 10:33:36;;;;;;;360.07;187.20;;;27.20;99.90;;;;;;5012136;28;20408;-86
2023/09/05 10:36:03;;;;;;;357.37;185.20;;;27.40;99.90;;;;;;5012271;28;20038;-87
2023/09/05 10:38:33;;;;;;;376.20;189.47;;;27.40;99.90;;;;;;5012202;28;20049;-86
2023/09/05 10:40:59;;;;;;;390.07;190.17;;;27.60;99.90;;;;;;4995774;28;20138;-87
2023/09/05 10:43:25;;;;;;;377.63;190.37;;;27.70;99.90;;;;;;5012582;28;20073;-87
2023/09/05 10:46:01;;;;;;;346.23;186.53;;;27.70;99.90;;;;;;5012382;28;20045;-87
2023/09/05 10:48:45;;;;;;;334.07;186.03;;;27.80;99.90;;;;;;5011678;28;20046;-89
2023/09/05 10:51:14;;;;;;;324.93;184.03;;;27.80;99.90;;;;;;5012032;28;20050;-89
2023/09/05 10:53:48;;;;;;;319.33;183.80;;;28.00;99.90;;;;;;4995557;28;20041;-91
2023/09/05 10:56:53;;;;;;;310.13;181.85;;;28.10;99.80;;;;;;4995909;28;20049;-88
2023/09/05 11:06:42;;;;;;;441.77;194.47;;;28.40;99.50;;;;;;5013759;28;20080;-88
2023/09/05 11:09:12;;;;;;;445.97;194.70;;;28.60;99.40;;;;;;4995762;28;20114;-90
2023/09/05 11:11:57;;;;;;;447.13;193.93;;;28.60;99.80;;;;;;5007874;28;20061;-90
2023/09/05 11:15:06;;;;;;;447.53;195.17;;;28.40;99.60;;;;;;4995243;28;20081;-90
2023/09/05 11:17:52;;;;;;;440.90;194.80;;;28.60;98.80;;;;;;4917867;29;20510;-90
2023/09/05 11:32:04;;;;;;;512.37;200.33;;;28.80;98.40;;;;;;4859423;29;20068;-91
2023/09/05 11:34:45;;;;;;;547.83;207.83;;;28.80;99.70;;;;;;4830882;29;20144;-90
2023/09/05 11:37:44;;;;;;;563.90;212.70;;;28.90;98.00;;;;;;4865160;29;20515;-87
2023/09/05 11:40:17;;;;;;;580.75;214.13;;;29.00;99.90;;;;;;4865187;29;20052;-86
2023/09/05 11:42:43;;;;;;;575.30;215.27;;;29.00;98.20;;;;;;4864546;29;20049;-86
2023/09/05 11:48:15;;;;;;;582.03;216.13;;;29.10;97.90;;;;;;4859668;29;20063;-88
2023/09/05 11:50:43;;;;;;;570.13;213.93;;;29.10;97.40;;;;;;4861602;29;20037;-86
2023/09/05 11:53:17;;;;;;;546.70;211.80;;;29.10;98.10;;;;;;4851098;29;20041;-89
2023/09/05 11:55:43;;;;;;;518.17;205.43;;;29.20;98.20;;;;;;4902249;29;20071;-88
2023/09/05 11:58:15;;;;;;;479.73;201.03;;;29.30;97.20;;;;;;4885921;29;20052;-88
2023/09/05 12:00:44;;;;;;;472.47;200.67;;;29.40;98.40;;;;;;4921308;29;20063;-85
2023/09/05 12:03:15;;;;;;;441.80;194.13;;;29.50;97.40;;;;;;4924140;29;20043;-88
2023/09/05 12:05:51;;;;;;;465.40;197.97;;;29.40;96.80;;;;;;4980545;28;20054;-88
2023/09/05 12:08:25;;;;;;;474.20;198.50;;;29.50;96.20;;;;;;5008310;28;20046;-86
2023/09/05 12:10:58;;;;;;;477.23;198.43;;;29.60;97.00;;;;;;5014508;28;20049;-89
2023/09/05 12:13:45;;;;;;;517.97;200.90;;;29.70;96.60;;;;;;5013770;28;20041;-87
2023/09/05 12:16:19;;;;;;;557.80;209.83;;;29.90;96.20;;;;;;5014673;28;20100;-88
2023/09/05 12:19:09;;;;;;;566.87;211.10;;;29.90;97.30;;;;;;5015380;28;20089;-87
2023/09/05 12:21:47;;;;;;;586.00;215.20;;;29.90;95.60;;;;;;4997770;28;20054;-88
2023/09/05 12:24:31;;;;;;;566.13;209.97;;;30.00;97.40;;;;;;5014480;28;20085;-86
2023/09/05 12:26:59;;;;;;;586.00;213.80;;;30.00;97.60;;;;;;4997906;28;20050;-87
2023/09/05 12:29:40;;;;;;;595.70;214.57;;;30.00;97.60;;;;;;5013174;28;20126;-87
2023/09/05 12:32:55;;;;;;;572.97;212.10;;;30.00;96.50;;;;;;4997970;28;20050;-90
2023/09/05 12:35:49;;;;;;;567.50;210.30;;;29.90;96.70;;;;;;4939205;29;20044;-87
2023/09/05 12:39:00;;;;;;;576.67;214.37;;;30.00;95.90;;;;;;4906851;28;20142;-89